Tyne Valley, Canada
Current Conditions -  °F | °C
As of 10:00 AM on Thursday 30 Oct 2014 (Local Time) from CYYG Reporting Station
Broken Clouds Broken Clouds  
Wind Chill: 50°   Ceiling: 25000
Heat Index: 50°   Visibility: 15mi
Dew Point: 45°   Wind: 10mph
Humidity: 82%   Direction: 260°W
Pressure: 29.76"   Gusts: 20mph
Location:  46.57°N, 63.93°W
Report Text: CYYG 301300Z 26009G17KT 15SM SCT013 SCT120 BKN250 10/07 A2976 RMK CF3AC1CI1 SLP077
Loading
Personal Weather Stations






























Interactive Weather Map
Tropical Storm Tracking
New forecast layout! Learn more

10-Day Weather Forecast

Advertisements
Track Severe Weather on mobile